createdAt,value
2019-04-25T00:01:34.518Z,100551.07
2019-04-25T00:04:03.018Z,100551.96
2019-04-25T00:06:32.194Z,100551.57
2019-04-25T00:09:01.899Z,100553.32
2019-04-25T00:11:31.241Z,100558.55
2019-04-25T00:14:01.463Z,100560.31
2019-04-25T00:16:31.821Z,100556.40
2019-04-25T00:19:01.768Z,100551.20
2019-04-25T00:21:33.892Z,100551.22
2019-04-25T00:24:04.076Z,100547.33
2019-04-25T00:26:34.197Z,100548.64
2019-04-25T00:29:03.988Z,100547.77
2019-04-25T00:31:32.622Z,100547.38
2019-04-25T00:34:02.169Z,100550.44
2019-04-25T00:36:31.854Z,100556.95
2019-04-25T00:39:02.016Z,100566.98
2019-04-25T00:41:32.065Z,100576.97
2019-04-25T00:44:02.366Z,100584.84
2019-04-25T00:46:32.223Z,100600.05
2019-04-25T00:49:02.425Z,100615.74
2019-04-25T00:51:31.791Z,100629.67
2019-04-25T00:54:02.090Z,100629.70
2019-04-25T00:56:32.122Z,100634.91
2019-04-25T00:59:08.175Z,100620.14
2019-04-25T01:01:51.830Z,100612.73
2019-04-25T01:04:21.821Z,100614.05
2019-04-25T01:06:52.018Z,100624.48
2019-04-25T01:09:22.264Z,100618.80
2019-04-25T01:11:52.345Z,100618.38
2019-04-25T01:14:21.810Z,100635.34
2019-04-25T01:16:52.300Z,100634.47
2019-04-25T01:19:20.911Z,100624.48
2019-04-25T01:21:49.387Z,100625.34
2019-04-25T01:24:17.873Z,100637.09
2019-04-25T01:26:46.408Z,100625.81
2019-04-25T01:29:15.155Z,100635.36
2019-04-25T01:31:43.698Z,100637.13
2019-04-25T01:34:14.221Z,100638.00
2019-04-25T01:36:44.427Z,100621.89
2019-04-25T01:39:14.525Z,100616.69
2019-04-25T01:41:57.459Z,100619.73
2019-04-25T01:44:34.088Z,100617.56
2019-04-25T01:47:04.205Z,100612.80
2019-04-25T01:49:33.995Z,100625.84
2019-04-25T01:52:03.577Z,100621.50
2019-04-25T01:54:33.832Z,100624.55
2019-04-25T01:57:04.173Z,100630.20
2019-04-25T01:59:33.820Z,100628.04
2019-04-25T02:02:03.799Z,100634.56
2019-04-25T02:04:34.146Z,100632.80
2019-04-25T02:07:04.470Z,100634.54
2019-04-25T02:09:33.673Z,100641.06
2019-04-25T02:12:13.500Z,100638.91
2019-04-25T02:14:43.542Z,100648.02
2019-04-25T02:17:14.023Z,100648.89
2019-04-25T02:19:43.898Z,100657.16
2019-04-25T02:22:14.446Z,100646.73
2019-04-25T02:24:43.730Z,100649.34
2019-04-25T02:27:13.515Z,100651.09
2019-04-25T02:29:43.266Z,100660.64
2019-04-25T02:32:14.586Z,100658.45
2019-04-25T02:34:45.277Z,100651.08
2019-04-25T02:37:14.550Z,100651.49
2019-04-25T02:39:44.724Z,100649.75
2019-04-25T02:42:14.313Z,100658.00
2019-04-25T02:44:45.411Z,100651.95
2019-04-25T02:47:18.578Z,100647.56
2019-04-25T02:49:57.307Z,100629.30
2019-04-25T02:52:26.723Z,100632.77
2019-04-25T02:54:56.973Z,100641.91
2019-04-25T02:57:25.424Z,100624.52
2019-04-25T02:59:54.760Z,100625.38
2019-04-25T03:02:24.860Z,100628.41
2019-04-25T03:04:54.541Z,100626.24
2019-04-25T03:07:24.675Z,100631.90
2019-04-25T03:09:54.774Z,100651.46
2019-04-25T03:12:32.338Z,100655.84
2019-04-25T03:14:54.947Z,100655.39
2019-04-25T03:17:24.649Z,100658.44
2019-04-25T03:20:01.419Z,100649.32
2019-04-25T03:22:34.404Z,100648.44
2019-04-25T03:25:06.857Z,100654.95
2019-04-25T03:27:34.039Z,100664.52
2019-04-25T03:30:04.459Z,100671.02
2019-04-25T03:32:35.634Z,100674.48
2019-04-25T03:35:05.541Z,100677.13
2019-04-25T03:37:35.287Z,100687.13
2019-04-25T03:40:09.688Z,100686.67
2019-04-25T03:42:38.189Z,100683.59
2019-04-25T03:45:07.162Z,100683.59
2019-04-25T03:47:35.738Z,100688.39
2019-04-25T03:50:08.797Z,100687.06
2019-04-25T03:52:37.349Z,100701.41
2019-04-25T03:55:07.718Z,100708.79
2019-04-25T03:57:37.196Z,100711.38
2019-04-25T04:00:08.808Z,100726.60
2019-04-25T04:02:37.417Z,100729.23
2019-04-25T04:05:08.266Z,100727.91
2019-04-25T04:07:37.178Z,100719.19
2019-04-25T04:10:07.980Z,100726.15
2019-04-25T04:12:36.789Z,100733.52
2019-04-25T04:15:06.997Z,100735.72
2019-04-25T04:17:55.629Z,100726.55
2019-04-25T04:20:25.770Z,100726.52
2019-04-25T04:22:58.865Z,100723.50
2019-04-25T04:25:28.107Z,100741.77
2019-04-25T04:27:56.590Z,100740.02
2019-04-25T04:30:25.077Z,100705.19
2019-04-25T04:32:53.744Z,100718.68
2019-04-25T04:35:23.481Z,100747.84
2019-04-25T04:37:52.357Z,100747.39
2019-04-25T04:40:20.979Z,100753.94
2019-04-25T04:42:49.447Z,100766.56
2019-04-25T04:45:18.254Z,100780.50
2019-04-25T04:47:46.932Z,100773.53
2019-04-25T04:50:15.466Z,100771.34
2019-04-25T04:52:44.083Z,100776.55
2019-04-25T04:55:15.732Z,100776.97
2019-04-25T04:57:43.492Z,100775.64
2019-04-25T05:00:14.607Z,100757.34
2019-04-25T05:02:56.919Z,100752.55
2019-04-25T05:05:30.664Z,100754.27
2019-04-25T05:08:01.154Z,100757.74
2019-04-25T05:10:29.636Z,100767.31
2019-04-25T05:12:59.182Z,100767.77
2019-04-25T05:15:27.709Z,100764.71
2019-04-25T05:17:56.205Z,100773.81
2019-04-25T05:20:24.687Z,100774.23
2019-04-25T05:22:54.882Z,100768.13
2019-04-25T05:25:24.550Z,100774.63
2019-04-25T05:28:00.758Z,100777.27
2019-04-25T05:30:34.131Z,100788.14
2019-04-25T05:33:03.951Z,100781.16
2019-04-25T05:35:33.282Z,100785.48
2019-04-25T05:38:03.415Z,100792.89
2019-04-25T05:40:33.360Z,100802.44
2019-04-25T05:43:03.695Z,100815.47
2019-04-25T05:45:34.025Z,100813.27
2019-04-25T05:48:04.316Z,100814.11
2019-04-25T05:50:33.885Z,100826.70
2019-04-25T05:53:04.142Z,100831.01
2019-04-25T05:55:34.131Z,100842.77
2019-04-25T05:58:03.857Z,100846.24
2019-04-25T06:00:34.125Z,100859.30
2019-04-25T06:03:03.594Z,100864.95
2019-04-25T06:05:33.523Z,100869.33
2019-04-25T06:08:04.138Z,100876.30
2019-04-25T06:10:34.074Z,100878.47
2019-04-25T06:13:20.003Z,100892.84
2019-04-25T06:15:50.121Z,100889.36
2019-04-25T06:18:33.876Z,100899.84
2019-04-25T06:21:03.182Z,100902.88
2019-04-25T06:23:45.999Z,100910.70
2019-04-25T06:26:24.970Z,100909.81
2019-04-25T06:28:53.626Z,100919.81
2019-04-25T06:31:16.798Z,100928.95
2019-04-25T06:33:45.329Z,100927.64
2019-04-25T06:36:14.041Z,100930.23
2019-04-25T06:38:44.268Z,100934.99
2019-04-25T06:41:13.489Z,100939.78
2019-04-25T06:43:44.259Z,100946.75
2019-04-25T06:46:17.347Z,100951.55
2019-04-25T06:48:47.514Z,100961.61
2019-04-25T06:51:15.993Z,100963.39
2019-04-25T06:53:44.523Z,100960.77
2019-04-25T06:56:13.696Z,100962.91
2019-04-25T06:58:43.894Z,100968.13
2019-04-25T07:01:13.471Z,100970.70
2019-04-25T07:03:42.166Z,100969.33
2019-04-25T07:06:10.858Z,100968.38
2019-04-25T07:08:39.441Z,100962.58
2019-04-25T07:11:08.035Z,100972.13
2019-04-25T07:13:38.703Z,100967.67
2019-04-25T07:16:07.077Z,100968.01
2019-04-25T07:18:37.255Z,100968.80
2019-04-25T07:21:05.897Z,100964.32
2019-04-25T07:23:34.671Z,100966.41
2019-04-25T07:26:04.895Z,100972.00
2019-04-25T07:28:36.077Z,100974.05
2019-04-25T07:31:13.348Z,100976.13
2019-04-25T07:33:49.299Z,100972.53
2019-04-25T07:36:17.804Z,100969.77
2019-04-25T07:38:46.295Z,100973.18
2019-04-25T07:41:16.359Z,100973.48
2019-04-25T07:43:45.053Z,100979.53
2019-04-25T07:46:13.610Z,100978.11
2019-04-25T07:48:43.700Z,100987.20
2019-04-25T07:51:16.167Z,100992.34
2019-04-25T07:53:43.652Z,100990.51
2019-04-25T07:56:12.287Z,100989.11
2019-04-25T07:58:49.217Z,100993.39
2019-04-25T08:01:11.532Z,100997.20
2019-04-25T08:03:40.027Z,100993.19
2019-04-25T08:06:08.679Z,100998.31
2019-04-25T08:08:37.940Z,100988.59
2019-04-25T08:11:08.643Z,100993.72
2019-04-25T08:13:50.963Z,100997.08
2019-04-25T08:16:24.806Z,100995.63
2019-04-25T08:18:54.003Z,101006.02
2019-04-25T08:21:23.883Z,101006.42
2019-04-25T08:23:53.343Z,101009.48
2019-04-25T08:26:21.896Z,101008.55
2019-04-25T08:28:55.685Z,101017.70
2019-04-25T08:31:20.762Z,101017.63
2019-04-25T08:33:49.234Z,101016.20
2019-04-25T08:36:17.746Z,101017.45
2019-04-25T08:38:46.256Z,101020.86
2019-04-25T08:41:14.754Z,101031.72
2019-04-25T08:43:45.351Z,101029.91
2019-04-25T08:46:14.085Z,101029.84
2019-04-25T08:49:02.168Z,101032.89
2019-04-25T08:51:34.810Z,101026.68
2019-04-25T08:54:04.027Z,101037.98
2019-04-25T08:56:35.264Z,101037.81
2019-04-25T08:59:08.080Z,101042.04
2019-04-25T09:01:50.449Z,101043.70
2019-04-25T09:04:26.571Z,101036.96
2019-04-25T09:06:55.100Z,101036.73
2019-04-25T09:09:23.654Z,101043.13
2019-04-25T09:11:54.289Z,101047.37
2019-04-25T09:14:22.624Z,101048.58
2019-04-25T09:16:53.265Z,101045.80
2019-04-25T09:19:22.047Z,101049.17
2019-04-25T09:21:50.552Z,101045.04
2019-04-25T09:24:19.045Z,101053.16
2019-04-25T09:26:47.522Z,101054.75
2019-04-25T09:29:19.582Z,101056.80
2019-04-25T09:31:46.233Z,101059.74
2019-04-25T09:34:14.776Z,101060.87
2019-04-25T09:36:43.918Z,101061.17
2019-04-25T09:39:15.123Z,101064.14
2019-04-25T09:41:44.178Z,101060.03
2019-04-25T09:44:15.158Z,101061.17
2019-04-25T09:46:46.509Z,101059.17
2019-04-25T09:49:15.472Z,101060.31
2019-04-25T09:51:54.752Z,101054.34
2019-04-25T09:54:44.110Z,101052.30
2019-04-25T09:57:33.549Z,101053.41
2019-04-25T10:00:03.628Z,101057.66
2019-04-25T10:02:32.276Z,101060.52
2019-04-25T10:05:00.783Z,101059.47
2019-04-25T10:07:29.253Z,101060.61
2019-04-25T10:09:57.736Z,101062.11
2019-04-25T10:12:26.273Z,101061.52
2019-04-25T10:15:31.370Z,101058.66
2019-04-25T10:18:00.966Z,101061.59
2019-04-25T10:20:29.468Z,101061.00
2019-04-25T10:22:57.958Z,101059.55
2019-04-25T10:25:26.500Z,101063.78
2019-04-25T10:27:54.983Z,101059.22
2019-04-25T10:30:25.843Z,101059.02
2019-04-25T10:32:54.774Z,101054.98
2019-04-25T10:35:23.855Z,101056.70
2019-04-25T10:37:53.737Z,101057.52
2019-04-25T10:40:25.082Z,101060.92
2019-04-25T10:42:53.609Z,101057.32
2019-04-25T10:45:24.244Z,101052.82
2019-04-25T10:47:53.359Z,101051.43
2019-04-25T10:50:23.838Z,101046.03
2019-04-25T10:52:54.251Z,101048.68
2019-04-25T10:55:23.412Z,101045.96
2019-04-25T10:57:53.510Z,101040.56
2019-04-25T11:00:26.979Z,101035.62
2019-04-25T11:02:57.099Z,101043.81
2019-04-25T11:05:25.833Z,101044.89
2019-04-25T11:07:55.899Z,101039.34
2019-04-25T11:10:25.687Z,101040.05
2019-04-25T11:12:55.235Z,101051.00
2019-04-25T11:15:23.880Z,101047.53
2019-04-25T11:17:54.149Z,101043.02
2019-04-25T11:20:28.683Z,101047.63
2019-04-25T11:22:58.110Z,101045.15
2019-04-25T11:25:26.665Z,101043.05
2019-04-25T11:27:55.320Z,101037.77
2019-04-25T11:30:25.866Z,101035.70
2019-04-25T11:32:54.749Z,101035.84
2019-04-25T11:35:24.219Z,101032.49
2019-04-25T11:37:54.944Z,101038.45
2019-04-25T11:40:27.851Z,101036.96
2019-04-25T11:42:56.331Z,101048.73
2019-04-25T11:45:24.896Z,101054.77
2019-04-25T11:47:54.392Z,101053.39
2019-04-25T11:50:24.542Z,101047.16
2019-04-25T11:52:54.561Z,101048.83
2019-04-25T11:55:23.921Z,101053.55
2019-04-25T11:57:54.552Z,101052.52
2019-04-25T12:00:24.570Z,101056.68
2019-04-25T12:02:54.601Z,101045.83
2019-04-25T12:05:24.005Z,101046.94
2019-04-25T12:07:53.057Z,101046.33
2019-04-25T12:10:24.220Z,101050.14
2019-04-25T12:12:53.705Z,101044.66
2019-04-25T12:15:23.981Z,101044.41
2019-04-25T12:17:54.545Z,101046.42
2019-04-25T12:20:23.160Z,101048.84
2019-04-25T12:23:04.206Z,101044.32
2019-04-25T12:25:23.614Z,101045.00
2019-04-25T12:27:53.824Z,101036.86
2019-04-25T12:30:36.413Z,101039.28
2019-04-25T12:32:53.885Z,101041.63
2019-04-25T12:35:24.199Z,101036.91
2019-04-25T12:37:54.012Z,101031.89
2019-04-25T12:40:24.149Z,101034.83
2019-04-25T12:42:52.937Z,101032.98
2019-04-25T12:45:24.148Z,101029.80
2019-04-25T12:47:57.562Z,101034.54
2019-04-25T12:50:24.786Z,101034.79
2019-04-25T12:52:54.687Z,101041.24
2019-04-25T12:55:24.087Z,101034.03
2019-04-25T12:57:54.903Z,101035.55
2019-04-25T13:00:24.491Z,101042.44
2019-04-25T13:02:54.008Z,101048.03
2019-04-25T13:05:24.325Z,101038.16
2019-04-25T13:07:56.672Z,101034.42
2019-04-25T13:10:23.640Z,101030.30
2019-04-25T13:12:55.267Z,101035.50
2019-04-25T13:15:23.460Z,101036.75
2019-04-25T13:17:53.614Z,101038.34
2019-04-25T13:20:22.185Z,101041.67
2019-04-25T13:22:50.657Z,101036.30
2019-04-25T13:25:22.146Z,101030.84
2019-04-25T13:27:58.459Z,101031.17
2019-04-25T13:30:44.858Z,101034.69
2019-04-25T13:33:17.695Z,101033.30
2019-04-25T13:35:57.617Z,101035.48
2019-04-25T13:38:26.297Z,101036.70
2019-04-25T13:40:54.920Z,101036.51
2019-04-25T13:43:23.420Z,101045.61
2019-04-25T13:45:51.903Z,101038.44
2019-04-25T13:48:20.398Z,101043.28
2019-04-25T13:50:48.902Z,101036.63
2019-04-25T13:53:17.372Z,101039.20
2019-04-25T13:55:45.996Z,101041.33
2019-04-25T13:58:15.075Z,101031.88
2019-04-25T14:00:44.182Z,101031.83
2019-04-25T14:03:12.882Z,101031.35
2019-04-25T14:05:41.539Z,101032.77
2019-04-25T14:08:10.033Z,101029.64
2019-04-25T14:10:38.497Z,101029.64
2019-04-25T14:13:07.946Z,101025.65
2019-04-25T14:15:38.066Z,101022.52
2019-04-25T14:18:08.195Z,101022.14
2019-04-25T14:20:50.591Z,101022.14
2019-04-25T14:23:21.970Z,101021.57
2019-04-25T14:25:51.302Z,101021.52
2019-04-25T14:28:19.902Z,101023.64
2019-04-25T14:30:48.377Z,101024.97
2019-04-25T14:33:16.841Z,101028.48
2019-04-25T14:35:45.456Z,101025.89
2019-04-25T14:38:13.971Z,101024.17
2019-04-25T14:40:42.410Z,101024.64
2019-04-25T14:43:10.939Z,101021.19
2019-04-25T14:45:44.290Z,101021.25
2019-04-25T14:48:09.614Z,101018.15
2019-04-25T14:50:38.126Z,101018.06
2019-04-25T14:53:06.590Z,101014.39
2019-04-25T14:55:42.562Z,101017.32
2019-04-25T14:58:15.289Z,101018.89
2019-04-25T15:00:45.463Z,101017.91
2019-04-25T15:03:14.183Z,101008.04
2019-04-25T15:05:43.579Z,101016.97
2019-04-25T15:08:12.278Z,101016.17
2019-04-25T15:10:40.807Z,101018.03
2019-04-25T15:13:10.144Z,101013.72
2019-04-25T15:15:38.689Z,101016.47
2019-04-25T15:18:08.921Z,101015.67
2019-04-25T15:20:37.385Z,101012.16
2019-04-25T15:23:05.966Z,101011.67
2019-04-25T15:25:34.559Z,101023.11
2019-04-25T15:28:03.313Z,101015.52
2019-04-25T15:30:33.502Z,101019.56
2019-04-25T15:33:02.134Z,101018.66
2019-04-25T15:35:38.047Z,101011.20
2019-04-25T15:38:13.929Z,101018.23
2019-04-25T15:40:44.047Z,101010.67
2019-04-25T15:43:20.421Z,101011.05
2019-04-25T15:45:59.176Z,101014.13
2019-04-25T15:48:27.774Z,101007.48
2019-04-25T15:50:59.780Z,101011.86
2019-04-25T15:53:28.474Z,101006.06
2019-04-25T15:55:57.873Z,101011.80
2019-04-25T15:58:26.489Z,101009.99
2019-04-25T16:00:55.518Z,101010.32
2019-04-25T16:03:24.023Z,101010.32
2019-04-25T16:05:52.497Z,101009.99
2019-04-25T16:08:20.977Z,101011.70
2019-04-25T16:10:49.498Z,101012.12
2019-04-25T16:13:17.971Z,101012.23
2019-04-25T16:15:46.446Z,101011.47
2019-04-25T16:18:15.035Z,101008.92
2019-04-25T16:20:43.502Z,101006.41
2019-04-25T16:23:12.219Z,101010.02
2019-04-25T16:25:41.283Z,101008.37
2019-04-25T16:28:09.839Z,101011.50
2019-04-25T16:30:39.534Z,101003.58
2019-04-25T16:33:08.331Z,101008.04
2019-04-25T16:35:37.823Z,101008.42
2019-04-25T16:38:07.376Z,100999.23
2019-04-25T16:40:36.327Z,101003.37
2019-04-25T16:43:06.630Z,101001.98
2019-04-25T16:45:37.694Z,101008.74
2019-04-25T16:48:06.343Z,101007.22
2019-04-25T16:50:35.212Z,100998.59
2019-04-25T16:53:03.922Z,101003.11
2019-04-25T16:55:32.436Z,101005.43
2019-04-25T16:58:00.920Z,101007.27
2019-04-25T17:00:34.102Z,101005.39
2019-04-25T17:03:02.607Z,101006.66
2019-04-25T17:05:32.395Z,101011.09
2019-04-25T17:08:01.026Z,101005.83
2019-04-25T17:10:30.309Z,101004.05
2019-04-25T17:13:00.064Z,101004.72
2019-04-25T17:15:46.417Z,101003.80
2019-04-25T17:18:16.542Z,101008.91
2019-04-25T17:20:52.509Z,101011.66
2019-04-25T17:23:21.001Z,101002.85
2019-04-25T17:25:49.475Z,101007.33
2019-04-25T17:28:18.227Z,101001.42
2019-04-25T17:30:48.350Z,100999.48
2019-04-25T17:33:18.789Z,101013.25
2019-04-25T17:36:07.100Z,101021.33
2019-04-25T17:38:37.568Z,101022.54
2019-04-25T17:41:06.186Z,101023.58
2019-04-25T17:43:34.948Z,101022.27
2019-04-25T17:46:05.073Z,101033.81
2019-04-25T17:48:34.152Z,101034.87
2019-04-25T17:51:02.729Z,101030.44
2019-04-25T17:53:32.913Z,101029.54
2019-04-25T17:56:01.577Z,101036.85
2019-04-25T17:58:30.094Z,101041.42
2019-04-25T18:00:58.923Z,101046.73
2019-04-25T18:03:27.669Z,101048.05
2019-04-25T18:05:56.218Z,101050.55
2019-04-25T18:08:24.784Z,101045.92
2019-04-25T18:10:53.257Z,101052.70
2019-04-25T18:13:21.860Z,101051.97
2019-04-25T18:15:52.114Z,101058.20
2019-04-25T18:18:24.682Z,101058.69
2019-04-25T18:20:53.201Z,101059.56
2019-04-25T18:23:38.690Z,101056.50
2019-04-25T18:26:08.980Z,101059.50
2019-04-25T18:28:45.729Z,101060.27
2019-04-25T18:31:14.404Z,101054.78
2019-04-25T18:33:43.873Z,101055.47
2019-04-25T18:36:20.373Z,101055.21
2019-04-25T18:38:50.497Z,101059.38
2019-04-25T18:41:20.628Z,101060.91
2019-04-25T18:43:50.796Z,101056.78
2019-04-25T18:46:26.472Z,101058.70
2019-04-25T18:48:55.015Z,101060.67
2019-04-25T18:51:23.549Z,101057.78
2019-04-25T18:53:53.664Z,101063.23
2019-04-25T18:56:29.491Z,101059.89
2019-04-25T18:59:08.595Z,101063.16
2019-04-25T19:01:55.183Z,101065.52
2019-04-25T19:04:43.280Z,101064.36
2019-04-25T19:07:22.120Z,101057.92
2019-04-25T19:09:42.860Z,101066.42
2019-04-25T19:12:11.510Z,101059.10
2019-04-25T19:14:41.261Z,101067.09
2019-04-25T19:17:10.299Z,101065.02
2019-04-25T19:19:39.708Z,101066.46
2019-04-25T19:22:08.343Z,101064.39
2019-04-25T19:24:36.824Z,101064.48
2019-04-25T19:27:05.317Z,101064.56
2019-04-25T19:29:33.840Z,101060.30
2019-04-25T19:32:02.326Z,101057.75
2019-04-25T19:34:30.830Z,101051.69
2019-04-25T19:36:59.561Z,101062.70
2019-04-25T19:39:29.675Z,101066.27
2019-04-25T19:42:18.034Z,101058.02
2019-04-25T19:44:49.218Z,101061.59
2019-04-25T19:47:20.595Z,101060.80
2019-04-25T19:49:48.059Z,101065.66
2019-04-25T19:52:16.632Z,101065.69
2019-04-25T19:54:45.259Z,101075.78
2019-04-25T19:57:13.823Z,101076.25
2019-04-25T19:59:43.212Z,101071.48
2019-04-25T20:02:13.911Z,101075.44
2019-04-25T20:04:44.351Z,101080.70
2019-04-25T20:07:23.764Z,101076.35
2019-04-25T20:10:10.238Z,101082.48
2019-04-25T20:12:40.408Z,101079.02
2019-04-25T20:15:09.017Z,101086.86
2019-04-25T20:17:37.541Z,101081.23
2019-04-25T20:20:09.082Z,101076.88
2019-04-25T20:22:37.593Z,101079.94
2019-04-25T20:25:07.231Z,101080.38
2019-04-25T20:27:35.788Z,101078.23
2019-04-25T20:30:06.096Z,101079.11
2019-04-25T20:32:34.639Z,101079.55
2019-04-25T20:35:03.196Z,101078.67
2019-04-25T20:37:31.759Z,101074.35
2019-04-25T20:40:01.564Z,101079.16
2019-04-25T20:42:30.366Z,101075.70
2019-04-25T20:44:58.875Z,101072.22
2019-04-25T20:47:27.405Z,101065.69
2019-04-25T20:49:55.914Z,101069.19
2019-04-25T20:52:24.407Z,101066.59
2019-04-25T20:54:52.935Z,101067.48
2019-04-25T20:57:21.418Z,101065.32
2019-04-25T20:59:49.897Z,101060.08
2019-04-25T21:02:18.430Z,101062.73
2019-04-25T21:04:47.736Z,101060.98
2019-04-25T21:07:17.380Z,101059.69
2019-04-25T21:09:45.875Z,101059.68
2019-04-25T21:12:14.358Z,101059.24
2019-04-25T21:14:49.219Z,101055.33
2019-04-25T21:17:25.524Z,101056.66
2019-04-25T21:19:56.308Z,101054.90
2019-04-25T21:22:24.792Z,101051.42
2019-04-25T21:24:53.730Z,101050.55
2019-04-25T21:27:22.368Z,101049.67
2019-04-25T21:29:51.986Z,101055.78
2019-04-25T21:32:21.906Z,101049.70
2019-04-25T21:34:50.764Z,101047.53
2019-04-25T21:37:20.132Z,101044.47
2019-04-25T21:39:52.249Z,101041.83
2019-04-25T21:42:34.502Z,101047.93
2019-04-25T21:45:03.629Z,101047.52
2019-04-25T21:47:32.116Z,101044.45
2019-04-25T21:50:00.925Z,101044.45
2019-04-25T21:52:29.700Z,101045.35
2019-04-25T21:54:58.610Z,101040.97
2019-04-25T21:57:28.116Z,101043.59
2019-04-25T22:00:03.629Z,101046.66
2019-04-25T22:02:27.138Z,101044.46
2019-04-25T22:04:56.703Z,101037.52
2019-04-25T22:07:25.596Z,101037.48
2019-04-25T22:09:55.482Z,101037.50
2019-04-25T22:12:24.597Z,101037.06
2019-04-25T22:14:53.086Z,101036.63
2019-04-25T22:17:21.644Z,101035.75
2019-04-25T22:19:50.448Z,101037.47
2019-04-25T22:22:22.018Z,101035.72
2019-04-25T22:24:49.403Z,101032.66
2019-04-25T22:27:19.559Z,101023.54
2019-04-25T22:29:49.681Z,101018.30
2019-04-25T22:32:25.856Z,101014.81
2019-04-25T22:35:08.226Z,101013.49
2019-04-25T22:37:36.769Z,101018.27
2019-04-25T22:40:07.424Z,101013.03
2019-04-25T22:42:35.914Z,101006.49
2019-04-25T22:45:06.785Z,101011.27
2019-04-25T22:47:35.282Z,101013.90
2019-04-25T22:50:04.903Z,101009.49
2019-04-25T22:52:33.709Z,101003.39
2019-04-25T22:55:02.450Z,101007.73
2019-04-25T22:57:31.292Z,101013.83
2019-04-25T23:00:01.630Z,101015.98
2019-04-25T23:02:38.168Z,101014.69
2019-04-25T23:05:12.044Z,101019.89
2019-04-25T23:07:39.254Z,101015.97
2019-04-25T23:10:08.330Z,101013.78
2019-04-25T23:12:37.304Z,101013.36
2019-04-25T23:15:07.394Z,101011.19
2019-04-25T23:17:35.898Z,101012.92
2019-04-25T23:20:07.497Z,101003.77
2019-04-25T23:22:36.106Z,101006.80
2019-04-25T23:25:11.954Z,100997.22
2019-04-25T23:27:44.906Z,101000.69
2019-04-25T23:30:15.385Z,100998.05
2019-04-25T23:32:43.883Z,100995.91
2019-04-25T23:35:23.454Z,100993.69
2019-04-25T23:37:42.636Z,100996.73
2019-04-25T23:40:11.639Z,100989.75
2019-04-25T23:42:40.239Z,100991.48
2019-04-25T23:45:08.992Z,100983.20
2019-04-25T23:47:37.879Z,100991.43
2019-04-25T23:50:08.659Z,100985.75
2019-04-25T23:52:37.420Z,100979.23
2019-04-25T23:55:06.942Z,100973.99
2019-04-25T23:57:36.548Z,100970.05
